Time;durP1;ratioP1;P1;durP2;ratioP2;P2;SDS_P1;SDS_P2;PMS_P1;PMS_P2;Temp;Humidity;BMP_temperature;BMP_pressure;BME280_temperature;BME280_humidity;BME280_pressure;Samples;Min_cycle;Max_cycle;Signal;HPM_P1;HPM_P2
2023/12/26 00:01:42;;;;;;;;;;;17.40;44.80;;;;;;1566807;74;795;-72
2023/12/26 00:03:44;;;;;;;;;;;17.40;44.80;;;;;;1564633;74;1928;-73
2023/12/26 00:05:46;;;;;;;;;;;17.40;44.80;;;;;;1580163;74;1172;-73
2023/12/26 00:07:48;;;;;;;;;;;17.40;44.80;;;;;;1569327;74;765;-72
2023/12/26 00:09:50;;;;;;;;;;;17.40;44.90;;;;;;1568155;74;739;-72
2023/12/26 00:11:52;;;;;;;;;;;17.30;44.80;;;;;;1568600;74;774;-72
2023/12/26 00:13:54;;;;;;;;;;;17.40;44.80;;;;;;1570652;74;855;-71
2023/12/26 00:15:56;;;;;;;;;;;17.40;44.80;;;;;;1570471;74;1183;-72
2023/12/26 00:17:58;;;;;;;;;;;17.40;44.80;;;;;;1565503;74;786;-72
2023/12/26 00:19:59;;;;;;;;;;;17.40;44.90;;;;;;1575111;74;758;-71
2023/12/26 00:22:01;;;;;;;;;;;17.40;44.80;;;;;;1558642;74;785;-71
2023/12/26 00:24:03;;;;;;;;;;;17.30;44.80;;;;;;1565942;74;1934;-71
2023/12/26 00:26:05;;;;;;;;;;;17.40;44.80;;;;;;1567890;74;632;-72
2023/12/26 00:28:07;;;;;;;;;;;17.40;44.80;;;;;;1557837;74;780;-72
2023/12/26 00:30:09;;;;;;;;;;;17.40;44.80;;;;;;1574633;74;797;-73
2023/12/26 00:32:11;;;;;;;;;;;17.40;44.80;;;;;;1578711;74;748;-69
2023/12/26 00:34:13;;;;;;;;;;;17.40;44.80;;;;;;1572492;74;1224;-70
2023/12/26 00:36:18;;;;;;;;;;;17.40;44.80;;;;;;1575624;73;806;-70
2023/12/26 00:38:21;;;;;;;;;;;17.40;44.80;;;;;;1560018;74;1517;-72
2023/12/26 00:40:22;;;;;;;;;;;17.40;44.90;;;;;;1564148;74;1623;-70
2023/12/26 00:42:24;;;;;;;;;;;17.40;44.80;;;;;;1562048;75;776;-72
2023/12/26 00:44:26;;;;;;;;;;;17.40;44.80;;;;;;1559818;75;1922;-72
2023/12/26 00:46:28;;;;;;;;;;;17.40;44.80;;;;;;1562185;75;789;-72
2023/12/26 00:48:29;;;;;;;;;;;17.40;44.90;;;;;;1562680;75;781;-71
2023/12/26 00:50:31;;;;;;;;;;;17.30;44.90;;;;;;1560213;76;782;-72
2023/12/26 00:52:33;;;;;;;;;;;17.40;44.80;;;;;;1559466;74;1306;-73
2023/12/26 00:54:36;;;;;;;;;;;17.30;44.80;;;;;;1564189;75;1121;-69
2023/12/26 00:56:38;;;;;;;;;;;17.30;44.90;;;;;;1562350;75;765;-73
2023/12/26 00:58:39;;;;;;;;;;;17.30;44.90;;;;;;1561683;74;672;-72
2023/12/26 01:00:41;;;;;;;;;;;17.40;44.90;;;;;;1563808;75;760;-73
2023/12/26 01:02:43;;;;;;;;;;;17.40;44.90;;;;;;1561224;75;687;-73
2023/12/26 01:04:45;;;;;;;;;;;17.40;44.90;;;;;;1558084;74;1959;-72
2023/12/26 01:06:47;;;;;;;;;;;17.40;44.90;;;;;;1554898;76;764;-72
2023/12/26 01:08:49;;;;;;;;;;;17.30;44.90;;;;;;1563875;74;796;-71
2023/12/26 01:10:51;;;;;;;;;;;17.40;44.90;;;;;;1562233;75;777;-71
2023/12/26 01:12:53;;;;;;;;;;;17.40;44.90;;;;;;1559169;75;809;-71
2023/12/26 01:14:55;;;;;;;;;;;17.40;44.90;;;;;;1562436;74;1166;-72
2023/12/26 01:16:56;;;;;;;;;;;17.40;44.90;;;;;;1562714;75;753;-72
2023/12/26 01:18:58;;;;;;;;;;;17.40;44.90;;;;;;1563637;74;749;-72
2023/12/26 01:21:00;;;;;;;;;;;17.40;44.90;;;;;;1558989;75;759;-72
2023/12/26 01:23:02;;;;;;;;;;;17.40;44.90;;;;;;1562894;75;774;-72
2023/12/26 01:25:05;;;;;;;;;;;17.40;44.90;;;;;;1562128;75;1927;-70
2023/12/26 01:27:07;;;;;;;;;;;17.30;44.90;;;;;;1562434;75;777;-72
2023/12/26 01:29:08;;;;;;;;;;;17.40;44.90;;;;;;1564314;74;794;-71
2023/12/26 01:31:10;;;;;;;;;;;17.30;44.90;;;;;;1559629;75;709;-74
2023/12/26 01:33:12;;;;;;;;;;;17.40;44.90;;;;;;1564278;76;746;-72
2023/12/26 01:35:14;;;;;;;;;;;17.40;44.90;;;;;;1559730;75;1179;-72
2023/12/26 01:37:16;;;;;;;;;;;17.40;45.00;;;;;;1557504;75;761;-72
2023/12/26 01:39:18;;;;;;;;;;;17.40;45.00;;;;;;1562930;75;770;-72
2023/12/26 01:41:20;;;;;;;;;;;17.40;44.90;;;;;;1561420;74;789;-73
2023/12/26 01:43:22;;;;;;;;;;;17.40;45.00;;;;;;1554236;75;650;-73
2023/12/26 01:45:24;;;;;;;;;;;17.30;45.00;;;;;;1561767;75;1951;-72
2023/12/26 01:47:26;;;;;;;;;;;17.40;45.00;;;;;;1549797;75;764;-69
2023/12/26 01:49:27;;;;;;;;;;;17.40;45.00;;;;;;1573613;74;788;-72
2023/12/26 01:51:29;;;;;;;;;;;17.40;44.90;;;;;;1571017;74;643;-71
2023/12/26 01:53:32;;;;;;;;;;;17.40;44.90;;;;;;1571101;74;796;-72
2023/12/26 01:55:33;;;;;;;;;;;17.30;44.90;;;;;;1566321;74;1176;-72
2023/12/26 01:57:38;;;;;;;;;;;17.40;44.90;;;;;;1512112;77;727;-73
2023/12/26 01:59:39;;;;;;;;;;;17.30;44.90;;;;;;1519235;76;1585;-72
2023/12/26 02:01:41;;;;;;;;;;;17.40;44.90;;;;;;1566124;74;726;-70
2023/12/26 02:03:43;;;;;;;;;;;17.40;44.90;;;;;;1564539;74;783;-70
2023/12/26 02:05:45;;;;;;;;;;;17.40;44.90;;;;;;1574770;74;1932;-72
2023/12/26 02:07:47;;;;;;;;;;;17.30;44.90;;;;;;1577460;74;757;-69
2023/12/26 02:09:49;;;;;;;;;;;17.40;45.00;;;;;;1566295;74;792;-70
2023/12/26 02:11:51;;;;;;;;;;;17.30;44.90;;;;;;1562315;74;797;-73
2023/12/26 02:13:54;;;;;;;;;;;17.40;45.00;;;;;;1560398;75;781;-71
2023/12/26 02:15:55;;;;;;;;;;;17.40;44.90;;;;;;1562585;75;1150;-71
2023/12/26 02:17:57;;;;;;;;;;;17.40;44.90;;;;;;1567697;75;767;-71
2023/12/26 02:19:59;;;;;;;;;;;17.40;44.90;;;;;;1562855;75;766;-73
2023/12/26 02:22:01;;;;;;;;;;;17.40;44.90;;;;;;1563224;74;720;-70
2023/12/26 02:24:03;;;;;;;;;;;17.40;45.00;;;;;;1563251;74;1174;-70
2023/12/26 02:26:05;;;;;;;;;;;17.40;45.00;;;;;;1567369;75;1958;-72
2023/12/26 02:28:07;;;;;;;;;;;17.40;45.00;;;;;;1564192;75;751;-72
2023/12/26 02:30:09;;;;;;;;;;;17.40;45.00;;;;;;1562592;74;770;-73
2023/12/26 02:32:10;;;;;;;;;;;17.40;45.00;;;;;;1557942;75;764;-70
2023/12/26 02:34:12;;;;;;;;;;;17.30;45.00;;;;;;1558500;74;1156;-70
2023/12/26 02:36:14;;;;;;;;;;;17.40;44.90;;;;;;1569044;74;798;-72
2023/12/26 02:38:16;;;;;;;;;;;17.40;44.90;;;;;;1566447;74;748;-72
2023/12/26 02:40:18;;;;;;;;;;;17.40;44.90;;;;;;1558457;74;741;-72
2023/12/26 02:42:21;;;;;;;;;;;17.40;45.00;;;;;;1570195;74;791;-73
2023/12/26 02:44:22;;;;;;;;;;;17.40;45.00;;;;;;1569337;74;1285;-70
2023/12/26 02:46:24;;;;;;;;;;;17.40;45.00;;;;;;1559391;74;1936;-72
2023/12/26 02:48:26;;;;;;;;;;;17.40;45.00;;;;;;1569713;74;751;-73
2023/12/26 02:50:28;;;;;;;;;;;17.40;45.00;;;;;;1561416;74;747;-73
2023/12/26 02:52:30;;;;;;;;;;;17.40;45.00;;;;;;1530901;76;772;-72
2023/12/26 02:54:32;;;;;;;;;;;17.30;45.00;;;;;;1548233;75;1257;-71
2023/12/26 02:56:34;;;;;;;;;;;17.40;45.00;;;;;;1566876;74;790;-72
2023/12/26 02:58:36;;;;;;;;;;;17.30;45.00;;;;;;1576123;74;740;-72
2023/12/26 03:00:38;;;;;;;;;;;17.40;45.00;;;;;;1570923;74;771;-72
2023/12/26 03:02:39;;;;;;;;;;;17.40;45.00;;;;;;1567389;74;802;-73
2023/12/26 03:04:41;;;;;;;;;;;17.40;45.00;;;;;;1573365;74;1160;-74
2023/12/26 03:06:43;;;;;;;;;;;17.40;45.00;;;;;;1564789;74;1935;-73
2023/12/26 03:08:45;;;;;;;;;;;17.40;45.00;;;;;;1561649;74;810;-72
2023/12/26 03:10:47;;;;;;;;;;;17.40;45.00;;;;;;1565329;75;772;-72
2023/12/26 03:12:49;;;;;;;;;;;17.40;45.00;;;;;;1557693;74;781;-71
2023/12/26 03:14:51;;;;;;;;;;;17.40;45.00;;;;;;1567084;74;1236;-72
2023/12/26 03:16:53;;;;;;;;;;;17.40;45.00;;;;;;1566539;74;779;-70
2023/12/26 03:18:55;;;;;;;;;;;17.30;44.90;;;;;;1576397;74;751;-72
2023/12/26 03:20:56;;;;;;;;;;;17.40;45.00;;;;;;1565555;74;786;-73
2023/12/26 03:22:58;;;;;;;;;;;17.30;44.90;;;;;;1563687;74;757;-71
2023/12/26 03:25:00;;;;;;;;;;;17.30;44.90;;;;;;1566593;74;1944;-71
2023/12/26 03:27:02;;;;;;;;;;;17.40;44.90;;;;;;1567756;74;791;-71
2023/12/26 03:29:04;;;;;;;;;;;17.40;44.90;;;;;;1565078;74;746;-70
2023/12/26 03:31:10;;;;;;;;;;;17.40;44.90;;;;;;1567822;74;766;-69
2023/12/26 03:33:09;;;;;;;;;;;17.30;44.90;;;;;;1568025;74;1211;-73
2023/12/26 03:35:11;;;;;;;;;;;17.30;44.90;;;;;;1566232;74;1181;-75
2023/12/26 03:37:13;;;;;;;;;;;17.40;44.90;;;;;;1581177;74;757;-72
2023/12/26 03:39:15;;;;;;;;;;;17.40;44.90;;;;;;1569871;74;772;-72
2023/12/26 03:41:17;;;;;;;;;;;17.40;44.90;;;;;;1565229;74;1426;-72
2023/12/26 03:43:19;;;;;;;;;;;17.40;44.90;;;;;;1520360;75;776;-73
2023/12/26 03:45:21;;;;;;;;;;;17.40;44.90;;;;;;1562848;75;1946;-72
2023/12/26 03:47:23;;;;;;;;;;;17.40;44.90;;;;;;1541273;75;794;-71
2023/12/26 03:49:24;;;;;;;;;;;17.40;44.90;;;;;;1548989;75;748;-73
2023/12/26 03:51:26;;;;;;;;;;;17.40;44.90;;;;;;1522164;75;785;-70
2023/12/26 03:53:28;;;;;;;;;;;17.40;44.90;;;;;;1541277;75;751;-72
2023/12/26 03:55:30;;;;;;;;;;;17.30;44.90;;;;;;1529443;76;1254;-72
2023/12/26 03:57:32;;;;;;;;;;;17.40;44.90;;;;;;1562414;74;814;-72
2023/12/26 03:59:34;;;;;;;;;;;17.40;44.90;;;;;;1559668;75;798;-69
2023/12/26 04:01:36;;;;;;;;;;;17.30;44.90;;;;;;1563213;75;730;-73
2023/12/26 04:03:38;;;;;;;;;;;17.40;44.90;;;;;;1559619;75;793;-72
2023/12/26 04:05:40;;;;;;;;;;;17.40;44.90;;;;;;1561969;75;1936;-74
2023/12/26 04:07:42;;;;;;;;;;;17.30;44.90;;;;;;1565061;74;679;-72
2023/12/26 04:09:44;;;;;;;;;;;17.30;44.90;;;;;;1576546;74;783;-70
2023/12/26 04:11:46;;;;;;;;;;;17.40;44.90;;;;;;1571502;74;755;-71
2023/12/26 04:13:48;;;;;;;;;;;17.40;45.00;;;;;;1578100;74;683;-72
2023/12/26 04:15:49;;;;;;;;;;;17.40;45.00;;;;;;1565219;74;1168;-70
2023/12/26 04:17:51;;;;;;;;;;;17.40;44.90;;;;;;1580448;74;787;-72
2023/12/26 04:19:53;;;;;;;;;;;17.40;44.90;;;;;;1558074;75;689;-71
2023/12/26 04:21:55;;;;;;;;;;;17.40;45.00;;;;;;1558360;75;1068;-70
2023/12/26 04:23:57;;;;;;;;;;;17.40;45.00;;;;;;1572618;74;645;-72
2023/12/26 04:25:59;;;;;;;;;;;17.30;44.90;;;;;;1574212;74;1932;-74
2023/12/26 04:28:01;;;;;;;;;;;17.30;44.90;;;;;;1568401;74;772;-71
2023/12/26 04:30:03;;;;;;;;;;;17.30;44.90;;;;;;1564604;74;778;-68
2023/12/26 04:32:06;;;;;;;;;;;17.40;45.00;;;;;;1582939;74;787;-70
2023/12/26 04:34:08;;;;;;;;;;;17.30;45.00;;;;;;1580511;74;1209;-72
2023/12/26 04:36:10;;;;;;;;;;;17.40;44.90;;;;;;1577947;74;770;-71
2023/12/26 04:38:12;;;;;;;;;;;17.40;45.00;;;;;;1566240;74;1626;-72
2023/12/26 04:40:14;;;;;;;;;;;17.40;45.00;;;;;;1565144;74;750;-68
2023/12/26 04:42:16;;;;;;;;;;;17.40;45.00;;;;;;1539538;76;762;-69
2023/12/26 04:44:17;;;;;;;;;;;17.40;45.00;;;;;;1535336;76;1173;-69
2023/12/26 04:46:19;;;;;;;;;;;17.80;45.10;;;;;;1563291;74;1922;-73
2023/12/26 04:48:21;;;;;;;;;;;17.40;45.00;;;;;;1565057;75;787;-72
2023/12/26 04:50:23;;;;;;;;;;;17.40;44.80;;;;;;1568424;74;771;-72
2023/12/26 04:52:25;;;;;;;;;;;17.40;44.90;;;;;;1560553;74;777;-71
2023/12/26 04:54:27;;;;;;;;;;;17.40;44.90;;;;;;1578292;74;1223;-71
2023/12/26 04:56:29;;;;;;;;;;;17.40;44.90;;;;;;1562881;74;781;-70
2023/12/26 04:58:31;;;;;;;;;;;17.40;44.90;;;;;;1547983;76;782;-71
2023/12/26 05:00:32;;;;;;;;;;;17.40;44.90;;;;;;1535778;76;797;-69
2023/12/26 05:02:34;;;;;;;;;;;17.40;44.90;;;;;;1548098;76;777;-69
2023/12/26 05:04:36;;;;;;;;;;;17.40;44.80;;;;;;1550534;76;1174;-71
2023/12/26 05:06:38;;;;;;;;;;;17.40;44.80;;;;;;1512058;77;1962;-72
2023/12/26 05:08:40;;;;;;;;;;;17.40;44.80;;;;;;1572095;74;812;-72
2023/12/26 05:10:42;;;;;;;;;;;17.30;44.80;;;;;;1538818;76;753;-70
2023/12/26 05:12:44;;;;;;;;;;;17.40;44.80;;;;;;1531945;75;814;-72
2023/12/26 05:14:46;;;;;;;;;;;17.40;44.80;;;;;;1565309;74;1196;-72
2023/12/26 05:16:50;;;;;;;;;;;17.40;44.80;;;;;;1566800;74;765;-72
2023/12/26 05:18:51;;;;;;;;;;;17.40;44.80;;;;;;1560424;74;1611;-71
2023/12/26 05:20:53;;;;;;;;;;;17.40;44.80;;;;;;1559833;74;773;-73
2023/12/26 05:22:55;;;;;;;;;;;17.30;44.90;;;;;;1574618;74;761;-73
2023/12/26 05:24:57;;;;;;;;;;;17.30;44.90;;;;;;1573217;74;1238;-75
2023/12/26 05:26:59;;;;;;;;;;;17.40;44.80;;;;;;1542279;76;1956;-74
2023/12/26 05:29:01;;;;;;;;;;;17.30;44.80;;;;;;1574585;74;752;-72
2023/12/26 05:31:03;;;;;;;;;;;17.40;44.90;;;;;;1569492;74;777;-72
2023/12/26 05:33:05;;;;;;;;;;;17.30;44.80;;;;;;1577466;74;1434;-71
2023/12/26 05:35:07;;;;;;;;;;;17.40;44.80;;;;;;1539118;75;1190;-71
2023/12/26 05:37:09;;;;;;;;;;;17.40;44.90;;;;;;1567787;74;772;-71
2023/12/26 05:39:10;;;;;;;;;;;17.40;44.80;;;;;;1570711;74;754;-72
2023/12/26 05:41:12;;;;;;;;;;;17.30;44.90;;;;;;1568241;74;745;-72
2023/12/26 05:43:14;;;;;;;;;;;17.30;44.80;;;;;;1555108;74;800;-73
2023/12/26 05:45:17;;;;;;;;;;;17.40;44.80;;;;;;1538846;76;1171;-73
2023/12/26 05:47:20;;;;;;;;;;;17.40;44.90;;;;;;1573260;74;1923;-73
2023/12/26 05:49:22;;;;;;;;;;;17.30;44.80;;;;;;1569848;74;752;-72
2023/12/26 05:51:25;;;;;;;;;;;17.40;44.80;;;;;;1561446;74;777;-71
2023/12/26 05:53:30;;;;;;;;;;;17.40;44.90;;;;;;1532283;75;675;-72
2023/12/26 05:55:30;;;;;;;;;;;17.40;44.80;;;;;;1553539;74;1574;-72
2023/12/26 05:57:32;;;;;;;;;;;17.30;44.80;;;;;;1563108;74;778;-69
2023/12/26 05:59:34;;;;;;;;;;;17.40;44.90;;;;;;1559848;75;777;-71
2023/12/26 06:01:36;;;;;;;;;;;17.30;44.90;;;;;;1556461;74;794;-72
2023/12/26 06:03:38;;;;;;;;;;;17.40;44.80;;;;;;1557533;75;812;-71
2023/12/26 06:05:40;;;;;;;;;;;17.40;44.80;;;;;;1556581;75;1170;-72
2023/12/26 06:07:42;;;;;;;;;;;17.30;44.90;;;;;;1560955;75;1939;-71
2023/12/26 06:09:44;;;;;;;;;;;17.30;44.80;;;;;;1555574;74;768;-71
2023/12/26 06:11:45;;;;;;;;;;;17.40;44.80;;;;;;1564321;75;775;-71
2023/12/26 06:13:47;;;;;;;;;;;17.40;44.90;;;;;;1563430;75;753;-70
2023/12/26 06:15:49;;;;;;;;;;;17.40;44.90;;;;;;1562780;74;1159;-70
2023/12/26 06:17:51;;;;;;;;;;;17.40;44.90;;;;;;1579149;74;653;-69
2023/12/26 06:19:53;;;;;;;;;;;17.40;44.80;;;;;;1563770;74;789;-71
2023/12/26 06:21:55;;;;;;;;;;;17.40;44.90;;;;;;1569676;74;766;-74
2023/12/26 06:23:57;;;;;;;;;;;17.40;44.90;;;;;;1571607;74;678;-71
2023/12/26 06:25:58;;;;;;;;;;;17.30;44.80;;;;;;1562035;74;1149;-71
2023/12/26 06:28:00;;;;;;;;;;;17.40;44.80;;;;;;1563047;74;1946;-72
2023/12/26 06:30:03;;;;;;;;;;;17.40;44.90;;;;;;1577090;74;1416;-69
2023/12/26 06:32:05;;;;;;;;;;;17.30;44.80;;;;;;1563910;74;695;-71
2023/12/26 06:34:07;;;;;;;;;;;17.40;44.80;;;;;;1573124;74;1133;-73
2023/12/26 06:36:09;;;;;;;;;;;17.40;44.80;;;;;;1580980;74;758;-69
2023/12/26 06:38:13;;;;;;;;;;;17.30;44.90;;;;;;1573767;74;764;-73
2023/12/26 06:40:15;;;;;;;;;;;17.40;44.80;;;;;;1562398;74;625;-71
2023/12/26 06:42:17;;;;;;;;;;;17.40;44.80;;;;;;1564554;74;774;-71
2023/12/26 06:44:19;;;;;;;;;;;17.40;44.90;;;;;;1562380;74;1155;-69
2023/12/26 06:46:21;;;;;;;;;;;17.40;44.80;;;;;;1570702;74;1918;-71
2023/12/26 06:48:23;;;;;;;;;;;17.40;44.80;;;;;;1562468;74;779;-71
2023/12/26 06:50:25;;;;;;;;;;;17.40;44.80;;;;;;1547822;76;763;-71
2023/12/26 06:52:27;;;;;;;;;;;17.40;44.80;;;;;;1558229;74;767;-70
2023/12/26 06:54:32;;;;;;;;;;;17.40;44.80;;;;;;1558078;74;1193;-70
2023/12/26 06:56:32;;;;;;;;;;;17.40;44.80;;;;;;1562076;75;1542;-72
2023/12/26 06:58:34;;;;;;;;;;;17.40;44.90;;;;;;1561063;75;765;-72
2023/12/26 07:00:36;;;;;;;;;;;17.40;44.90;;;;;;1562701;75;782;-69
2023/12/26 07:02:38;;;;;;;;;;;17.40;44.80;;;;;;1560194;74;788;-70
2023/12/26 07:04:44;;;;;;;;;;;17.40;44.80;;;;;;1554925;75;1155;-73
2023/12/26 07:06:46;;;;;;;;;;;17.40;44.80;;;;;;1557404;75;1920;-71
2023/12/26 07:08:48;;;;;;;;;;;17.40;44.80;;;;;;1564241;75;760;-71
2023/12/26 07:10:50;;;;;;;;;;;17.40;44.80;;;;;;1560586;75;796;-72
2023/12/26 07:12:52;;;;;;;;;;;17.30;44.80;;;;;;1558339;74;792;-72
2023/12/26 07:14:54;;;;;;;;;;;17.30;44.80;;;;;;1551221;75;1185;-70
2023/12/26 07:16:56;;;;;;;;;;;17.40;44.80;;;;;;1557410;75;765;-72
2023/12/26 07:18:58;;;;;;;;;;;17.30;44.90;;;;;;1564237;75;681;-70
2023/12/26 07:21:00;;;;;;;;;;;17.40;44.80;;;;;;1555874;74;751;-72
2023/12/26 07:23:02;;;;;;;;;;;17.40;44.80;;;;;;1562393;75;754;-69
2023/12/26 07:25:04;;;;;;;;;;;17.40;44.80;;;;;;1562971;75;1466;-69
2023/12/26 07:27:05;;;;;;;;;;;17.40;44.80;;;;;;1564202;75;1936;-72
2023/12/26 07:29:07;;;;;;;;;;;17.40;44.80;;;;;;1562999;75;651;-72
2023/12/26 07:31:09;;;;;;;;;;;17.40;44.80;;;;;;1561577;74;768;-72
2023/12/26 07:33:11;;;;;;;;;;;17.40;44.80;;;;;;1563332;74;771;-72
2023/12/26 07:35:13;;;;;;;;;;;17.40;44.80;;;;;;1560818;74;1172;-70
2023/12/26 07:37:15;;;;;;;;;;;17.30;44.80;;;;;;1562523;75;784;-72
2023/12/26 07:39:19;;;;;;;;;;;17.40;44.80;;;;;;1563605;74;758;-70
2023/12/26 07:41:21;;;;;;;;;;;17.40;44.80;;;;;;1562434;74;676;-73
2023/12/26 07:43:23;;;;;;;;;;;17.40;44.80;;;;;;1549627;75;746;-72
2023/12/26 07:45:25;;;;;;;;;;;17.40;44.80;;;;;;1572083;74;1181;-72
2023/12/26 07:47:27;;;;;;;;;;;17.40;44.80;;;;;;1571395;74;1942;-73
2023/12/26 07:49:29;;;;;;;;;;;17.30;44.80;;;;;;1577527;74;800;-72
2023/12/26 07:51:31;;;;;;;;;;;17.40;44.80;;;;;;1559890;74;770;-73
2023/12/26 07:53:33;;;;;;;;;;;17.40;44.70;;;;;;1557777;74;812;-69
2023/12/26 07:55:35;;;;;;;;;;;17.30;44.70;;;;;;1529842;75;1250;-70
2023/12/26 07:57:36;;;;;;;;;;;17.40;44.80;;;;;;1527610;76;950;-72
2023/12/26 07:59:38;;;;;;;;;;;17.30;44.80;;;;;;1532285;75;966;-72
2023/12/26 08:01:40;;;;;;;;;;;17.40;44.70;;;;;;1568964;74;785;-72
2023/12/26 08:03:42;;;;;;;;;;;17.40;44.70;;;;;;1561462;74;666;-71
2023/12/26 08:05:44;;;;;;;;;;;17.40;44.80;;;;;;1567632;74;1180;-71
2023/12/26 08:07:46;;;;;;;;;;;17.40;44.80;;;;;;1566269;74;1936;-73
2023/12/26 08:09:48;;;;;;;;;;;17.40;44.80;;;;;;1563036;74;768;-70
2023/12/26 08:11:49;;;;;;;;;;;17.40;44.80;;;;;;1566699;74;793;-72
2023/12/26 08:13:52;;;;;;;;;;;17.40;44.80;;;;;;1567296;74;985;-72
2023/12/26 08:15:54;;;;;;;;;;;17.40;44.80;;;;;;1554700;75;1124;-71
2023/12/26 08:17:56;;;;;;;;;;;17.30;44.80;;;;;;1564395;75;782;-72
2023/12/26 08:19:58;;;;;;;;;;;17.40;44.80;;;;;;1561884;75;724;-71
2023/12/26 08:22:00;;;;;;;;;;;17.30;44.70;;;;;;1558771;75;1423;-69
2023/12/26 08:24:03;;;;;;;;;;;17.40;44.80;;;;;;1564134;75;1184;-69
2023/12/26 08:26:07;;;;;;;;;;;17.40;44.70;;;;;;1558229;75;752;-70
2023/12/26 08:28:09;;;;;;;;;;;17.40;44.70;;;;;;1556546;75;1943;-71
2023/12/26 08:30:11;;;;;;;;;;;17.40;44.70;;;;;;1559308;75;795;-71
2023/12/26 08:32:13;;;;;;;;;;;17.40;44.70;;;;;;1562550;74;745;-70
2023/12/26 08:34:15;;;;;;;;;;;17.30;44.70;;;;;;1563746;75;1185;-72
2023/12/26 08:36:17;;;;;;;;;;;17.30;44.70;;;;;;1564586;75;748;-72
2023/12/26 08:38:18;;;;;;;;;;;17.30;44.70;;;;;;1562364;75;782;-72
2023/12/26 08:40:22;;;;;;;;;;;17.40;44.70;;;;;;1564185;75;767;-72
2023/12/26 08:42:23;;;;;;;;;;;17.40;44.80;;;;;;1559875;75;767;-72
2023/12/26 08:44:25;;;;;;;;;;;17.40;44.70;;;;;;1564436;75;1161;-73
2023/12/26 08:46:27;;;;;;;;;;;17.40;44.70;;;;;;1560329;75;658;-71
2023/12/26 08:48:29;;;;;;;;;;;17.40;44.70;;;;;;1570497;75;1954;-72
2023/12/26 08:50:32;;;;;;;;;;;17.30;44.70;;;;;;1562834;75;873;-72
2023/12/26 08:52:33;;;;;;;;;;;17.40;44.80;;;;;;1562602;75;790;-75
2023/12/26 08:54:35;;;;;;;;;;;17.40;44.80;;;;;;1532998;76;1234;-73
2023/12/26 08:56:42;;;;;;;;;;;17.40;44.80;;;;;;1565835;74;783;-74
2023/12/26 08:58:41;;;;;;;;;;;17.40;44.80;;;;;;1561454;75;1201;-72
2023/12/26 09:00:44;;;;;;;;;;;17.40;44.70;;;;;;1555807;75;891;-68
2023/12/26 09:02:46;;;;;;;;;;;17.40;44.80;;;;;;1550997;74;760;-72
2023/12/26 09:04:48;;;;;;;;;;;17.40;44.80;;;;;;1564001;75;1169;-70
2023/12/26 09:06:49;;;;;;;;;;;17.30;44.80;;;;;;1562148;75;801;-70
2023/12/26 09:08:51;;;;;;;;;;;17.40;44.80;;;;;;1556306;75;1938;-73
2023/12/26 09:10:53;;;;;;;;;;;17.40;44.80;;;;;;1556859;75;803;-72
2023/12/26 09:12:55;;;;;;;;;;;17.40;44.70;;;;;;1562729;74;722;-69
2023/12/26 09:14:57;;;;;;;;;;;17.40;44.70;;;;;;1563576;75;1197;-71
2023/12/26 09:16:59;;;;;;;;;;;17.30;44.80;;;;;;1559349;75;803;-73
2023/12/26 09:19:01;;;;;;;;;;;17.40;44.70;;;;;;1564049;75;1447;-75
2023/12/26 09:21:03;;;;;;;;;;;17.40;44.80;;;;;;1559359;74;767;-70
2023/12/26 09:23:05;;;;;;;;;;;17.40;44.80;;;;;;1556229;75;790;-72
2023/12/26 09:25:13;;;;;;;;;;;17.40;44.80;;;;;;1562800;74;1169;-72
2023/12/26 09:27:10;;;;;;;;;;;17.40;44.70;;;;;;1561847;75;1924;-71
2023/12/26 09:29:12;;;;;;;;;;;17.40;44.70;;;;;;1564089;75;774;-72
2023/12/26 09:31:14;;;;;;;;;;;17.40;44.80;;;;;;1554851;75;638;-72
2023/12/26 09:33:16;;;;;;;;;;;17.40;44.70;;;;;;1562751;75;752;-72
2023/12/26 09:35:18;;;;;;;;;;;17.40;44.70;;;;;;1560811;75;1165;-72
2023/12/26 09:37:20;;;;;;;;;;;17.40;44.70;;;;;;1560901;75;768;-74
2023/12/26 09:39:22;;;;;;;;;;;17.40;44.70;;;;;;1558226;75;782;-72
2023/12/26 09:41:27;;;;;;;;;;;17.40;44.80;;;;;;1561774;76;762;-72
2023/12/26 09:43:29;;;;;;;;;;;17.40;44.70;;;;;;1576071;74;793;-72
2023/12/26 09:45:31;;;;;;;;;;;17.40;44.70;;;;;;1579940;74;1171;-74
2023/12/26 09:47:33;;;;;;;;;;;17.40;44.80;;;;;;1569945;74;1928;-74
2023/12/26 09:49:35;;;;;;;;;;;17.40;44.70;;;;;;1574133;74;772;-72
2023/12/26 09:51:37;;;;;;;;;;;17.40;44.70;;;;;;1567880;74;770;-71
2023/12/26 09:53:39;;;;;;;;;;;17.40;44.70;;;;;;1581450;74;810;-70
2023/12/26 09:55:41;;;;;;;;;;;17.40;44.70;;;;;;1565300;74;1245;-71
2023/12/26 09:57:43;;;;;;;;;;;17.40;44.70;;;;;;1533034;75;779;-70
2023/12/26 09:59:46;;;;;;;;;;;17.40;44.70;;;;;;1539542;75;817;-73
2023/12/26 10:01:48;;;;;;;;;;;17.40;44.70;;;;;;1540130;76;720;-74
2023/12/26 10:03:50;;;;;;;;;;;17.40;44.70;;;;;;1566643;74;800;-71
2023/12/26 10:05:57;;;;;;;;;;;17.40;44.70;;;;;;1564264;74;1236;-69
2023/12/26 10:07:55;;;;;;;;;;;17.40;44.70;;;;;;1560674;74;1942;-72
2023/12/26 10:09:57;;;;;;;;;;;17.40;44.70;;;;;;1573338;74;759;-72
2023/12/26 10:11:59;;;;;;;;;;;17.40;44.70;;;;;;1562351;74;783;-73
2023/12/26 10:14:01;;;;;;;;;;;17.60;44.80;;;;;;1567404;74;1382;-71
2023/12/26 10:16:03;;;;;;;;;;;17.40;44.70;;;;;;1566136;74;796;-70
2023/12/26 10:18:05;;;;;;;;;;;17.40;44.70;;;;;;1563316;74;751;-72
2023/12/26 10:20:07;;;;;;;;;;;17.40;44.70;;;;;;1560614;74;777;-72
2023/12/26 10:22:09;;;;;;;;;;;17.40;44.70;;;;;;1557838;74;783;-72
2023/12/26 10:24:11;;;;;;;;;;;17.40;44.70;;;;;;1561781;74;1173;-70
2023/12/26 10:26:13;;;;;;;;;;;17.40;44.70;;;;;;1531706;77;749;-70
2023/12/26 10:28:16;;;;;;;;;;;17.40;44.60;;;;;;1559142;74;1921;-70
2023/12/26 10:30:18;;;;;;;;;;;17.50;44.80;;;;;;1558184;74;793;-72
2023/12/26 10:32:20;;;;;;;;;;;17.40;44.70;;;;;;1555993;75;773;-70
2023/12/26 10:34:22;;;;;;;;;;;17.40;44.70;;;;;;1556081;74;1181;-69
2023/12/26 10:36:24;;;;;;;;;;;17.40;44.70;;;;;;1564433;74;776;-71
2023/12/26 10:38:25;;;;;;;;;;;17.40;44.70;;;;;;1554968;74;808;-72
2023/12/26 10:40:27;;;;;;;;;;;17.40;44.70;;;;;;1561419;75;761;-72
2023/12/26 10:42:29;;;;;;;;;;;17.40;44.70;;;;;;1559836;74;746;-72
2023/12/26 10:44:52;;;;;;;;;;;17.40;44.70;;;;;;1559678;74;1173;-72
2023/12/26 10:46:54;;;;;;;;;;;17.40;44.70;;;;;;1543823;74;733;-71
2023/12/26 10:48:56;;;;;;;;;;;17.40;44.70;;;;;;1569246;74;1938;-71
2023/12/26 10:50:58;;;;;;;;;;;17.40;44.70;;;;;;1562374;75;763;-73
2023/12/26 10:53:19;;;;;;;;;;;17.40;44.70;;;;;;1546304;74;808;-72
2023/12/26 10:55:18;;;;;;;;;;;17.40;44.70;;;;;;1556908;74;1469;-73
2023/12/26 10:57:20;;;;;;;;;;;17.40;44.70;;;;;;1562363;75;790;-74
2023/12/26 13:53:15;;;;;;;;;;;17.50;44.80;;;;;;1586112;73;700;-71
2023/12/26 13:55:35;;;;;;;;;;;17.50;44.90;;;;;;1600713;73;1254;-71
2023/12/26 13:57:55;;;;;;;;;;;17.50;44.90;;;;;;1600389;73;782;-71
2023/12/26 14:00:15;;;;;;;;;;;17.50;44.90;;;;;;1588007;73;1478;-73
2023/12/26 14:02:34;;;;;;;;;;;17.50;44.80;;;;;;1599602;73;671;-73
2023/12/26 14:04:54;;;;;;;;;;;17.40;44.70;;;;;;1602325;73;1226;-70
2023/12/26 14:07:14;;;;;;;;;;;17.50;44.80;;;;;;1589955;73;777;-71
2023/12/26 14:09:33;;;;;;;;;;;17.40;44.70;;;;;;1601464;73;1961;-71
2023/12/26 14:11:53;;;;;;;;;;;17.40;44.70;;;;;;1595960;73;740;-75
2023/12/26 14:14:13;;;;;;;;;;;17.40;44.70;;;;;;1591414;73;766;-73
2023/12/26 14:16:33;;;;;;;;;;;17.50;44.90;;;;;;1590348;73;768;-73
2023/12/26 14:18:53;;;;;;;;;;;17.40;44.70;;;;;;1594247;73;783;-71
2023/12/26 14:21:13;;;;;;;;;;;17.40;44.70;;;;;;1587966;73;764;-73
2023/12/26 14:23:32;;;;;;;;;;;17.50;44.90;;;;;;1609256;73;701;-70
2023/12/26 14:25:52;;;;;;;;;;;17.40;44.70;;;;;;1597673;73;1167;-74
2023/12/26 14:28:12;;;;;;;;;;;17.40;44.70;;;;;;1592543;73;769;-71
2023/12/26 14:30:31;;;;;;;;;;;17.50;44.80;;;;;;1605166;73;794;-73
2023/12/26 14:32:51;;;;;;;;;;;17.40;44.70;;;;;;1601865;73;818;-72
2023/12/26 14:35:12;;;;;;;;;;;17.40;44.70;;;;;;1597156;73;1179;-72
2023/12/26 14:37:32;;;;;;;;;;;17.40;44.70;;;;;;1603023;73;788;-73
2023/12/26 14:39:51;;;;;;;;;;;17.40;44.80;;;;;;1593339;73;778;-71
2023/12/26 14:42:11;;;;;;;;;;;17.40;44.70;;;;;;1598275;73;776;-75
2023/12/26 14:44:31;;;;;;;;;;;17.50;44.90;;;;;;1587100;73;1174;-72
2023/12/26 14:46:51;;;;;;;;;;;17.40;44.70;;;;;;1595688;73;802;-73
2023/12/26 14:49:10;;;;;;;;;;;17.40;44.70;;;;;;1592480;73;1932;-72
2023/12/26 14:51:30;;;;;;;;;;;17.50;44.90;;;;;;1591202;73;744;-73
2023/12/26 14:53:50;;;;;;;;;;;17.50;44.90;;;;;;1602246;73;759;-70
2023/12/26 14:56:10;;;;;;;;;;;17.40;44.80;;;;;;1592032;73;1504;-71
2023/12/26 14:58:30;;;;;;;;;;;17.40;44.70;;;;;;1589027;73;758;-73
2023/12/26 15:00:49;;;;;;;;;;;17.50;44.90;;;;;;1600991;73;777;-72
2023/12/26 15:02:53;;;;;;;;;;;17.50;44.90;;;;;;1612519;73;690;-72
2023/12/26 15:04:55;;;;;;;;;;;17.40;44.70;;;;;;1599466;73;1294;-72
2023/12/26 15:06:57;;;;;;;;;;;17.50;44.90;;;;;;1596562;73;748;-72
2023/12/26 15:08:59;;;;;;;;;;;17.40;44.70;;;;;;1602373;73;1941;-72
2023/12/26 15:11:01;;;;;;;;;;;17.50;44.90;;;;;;1599523;73;715;-72